F/V Mare Liberum — FVHW — position and weather

sailwx.info

Track history (hours):
 
Tides and Currents Weather Stations Pressure Air Temp Water Temp Dewpoint Dewpoint Depression Visibility Wind Speed Wind Dir Waves Ship Positions

F/V Mare Liberum

Last reported at 2018-Feb-21 18:00 UTC. Time now 2018-Feb-21 19:27 UTC.
Position N 47°01' W 002°24'.

Length 21 m.

Type: Fishing. MMSI: 227426000.

Date/timePositionNaut miles runAvg speedWind from/ knotsBaromVisibWave heightAir tempDewpointWater temp
2018-Feb-21 18:00N 47°01' W 002°24'4 6.9
2018-Feb-21 17:22N 47°02' W 002°18'0 0.2
2018-Feb-21 16:43N 47°02' W 002°18'2 6.8
2018-Feb-21 16:29N 47°01' W 002°20'  
2018-Feb-18 16:44N 47°01' W 002°25'2 9.9
2018-Feb-18 16:29N 47°01' W 002°21'2 4.4
2018-Feb-18 16:00N 47°02' W 002°18'0 0.0
2018-Feb-18 15:25N 47°02' W 002°18'0 0.0
2018-Feb-18 14:58N 47°02' W 002°18'0 0.1
2018-Feb-18 14:29N 47°02' W 002°18'4 8.2
2018-Feb-18 14:00N 47°01' W 002°24'25 0.5
2018-Feb-16 12:22N 46°56' W 002°60'1 0.1
2018-Feb-16 05:01N 46°56' W 003°00'26 0.7
2018-Feb-14 16:21N 47°01' W 002°23'410.2
2018-Feb-14 16:00N 47°02' W 002°18'1 1.2
2018-Feb-14 15:30N 47°02' W 002°18'1 2.4
2018-Feb-14 14:58N 47°01' W 002°20'3 0.1
2018-Feb-13 11:58N 47°01' W 002°25'3 7.2
2018-Feb-13 11:30N 47°02' W 002°20'1 2.4
2018-Feb-13 11:00N 47°02' W 002°18'0 0.1
2018-Feb-13 10:29N 47°01' W 002°18'0 0.0
2018-Feb-13 10:00N 47°01' W 002°18'0 0.0
2018-Feb-13 09:30N 47°01' W 002°18'0 0.0
2018-Feb-13 09:00N 47°01' W 002°18'0 0.0
2018-Feb-13 08:29N 47°01' W 002°18'0 0.0
2018-Feb-13 07:58N 47°01' W 002°18'0 0.0
2018-Feb-13 07:30N 47°01' W 002°18'0 0.0
2018-Feb-13 07:00N 47°01' W 002°18'0 0.0
2018-Feb-13 06:30N 47°01' W 002°18'0 0.0
2018-Feb-13 05:57N 47°01' W 002°18'0 0.0
2018-Feb-13 05:28N 47°01' W 002°18'0 0.0
2018-Feb-13 05:00N 47°01' W 002°18'0 0.0
2018-Feb-13 04:30N 47°01' W 002°18'0 0.0
2018-Feb-13 04:00N 47°01' W 002°18'0 0.0
2018-Feb-13 03:30N 47°01' W 002°18'0 0.0
2018-Feb-13 03:00N 47°01' W 002°18'0 0.0
2018-Feb-13 02:30N 47°01' W 002°18'0 0.0
2018-Feb-13 02:00N 47°01' W 002°18'0 0.0
2018-Feb-13 01:30N 47°01' W 002°18'0 0.0
2018-Feb-13 01:00N 47°01' W 002°18'0 0.0
2018-Feb-13 00:30N 47°01' W 002°18'0 0.0
2018-Feb-13 00:00N 47°01' W 002°18'0 0.0
2018-Feb-12 23:30N 47°01' W 002°18'0 0.0
2018-Feb-12 23:00N 47°01' W 002°18'0 0.0
2018-Feb-12 22:29N 47°01' W 002°18'0 0.0
2018-Feb-12 22:00N 47°01' W 002°18'0 0.0
2018-Feb-12 21:30N 47°01' W 002°18'0 0.0
2018-Feb-12 21:00N 47°01' W 002°18'0 0.0
2018-Feb-12 20:29N 47°01' W 002°18'0 0.0
2018-Feb-12 19:59N 47°01' W 002°18'0 0.0
2018-Feb-12 19:30N 47°01' W 002°18'0 0.0
2018-Feb-12 18:58N 47°01' W 002°18'0 0.0
2018-Feb-12 18:30N 47°01' W 002°18'0 0.0
2018-Feb-12 17:59N 47°01' W 002°18'0 0.0
2018-Feb-12 17:30N 47°01' W 002°18'0 0.0
2018-Feb-12 16:58N 47°01' W 002°18'0 0.0
2018-Feb-12 16:30N 47°01' W 002°18'0 0.0
2018-Feb-12 16:00N 47°01' W 002°18'0 0.0
2018-Feb-12 15:30N 47°01' W 002°18'0 0.0
2018-Feb-12 14:59N 47°01' W 002°18'0 0.0
2018-Feb-12 14:30N 47°01' W 002°18'0 0.0
2018-Feb-12 14:00N 47°01' W 002°18'0 0.0
2018-Feb-12 13:27N 47°01' W 002°18'0 0.0
2018-Feb-12 12:57N 47°01' W 002°18'0 0.0
2018-Feb-12 12:26N 47°01' W 002°18'0 0.0
2018-Feb-12 12:00N 47°01' W 002°18'0 0.1
2018-Feb-12 11:30N 47°02' W 002°18'0 0.0
2018-Feb-12 11:00N 47°02' W 002°18'0 0.0
2018-Feb-12 10:27N 47°02' W 002°18'1 1.5
2018-Feb-12 10:00N 47°02' W 002°18'4 7.0
2018-Feb-12 09:30N 47°01' W 002°23'4 7.0
2018-Feb-12 09:00N 47°01' W 002°28'3 6.6
2018-Feb-12 08:29N 46°60' W 002°33'  
Track history (hours):
 
Tides and Currents Weather Stations Pressure Air Temp Water Temp Dewpoint Dewpoint Depression Visibility Wind Speed Wind Dir Waves Ship Positions

F/V Mare Liberum

Last reported at 2018-Feb-21 18:00 UTC. Time now 2018-Feb-21 19:27 UTC.
Position N 47°01' W 002°24'.

Length 21 m.

Type: Fishing. MMSI: 227426000.

Date/timePositionNaut miles runAvg speedWind from/ knotsBaromVisibWave heightAir tempDewpointWater temp
2018-Feb-21 18:00N 47°01' W 002°24'4 6.9
2018-Feb-21 17:22N 47°02' W 002°18'0 0.2
2018-Feb-21 16:43N 47°02' W 002°18'2 6.8
2018-Feb-21 16:29N 47°01' W 002°20'  
2018-Feb-18 16:44N 47°01' W 002°25'2 9.9
2018-Feb-18 16:29N 47°01' W 002°21'2 4.4
2018-Feb-18 16:00N 47°02' W 002°18'0 0.0
2018-Feb-18 15:25N 47°02' W 002°18'0 0.0
2018-Feb-18 14:58N 47°02' W 002°18'0 0.1
2018-Feb-18 14:29N 47°02' W 002°18'4 8.2
2018-Feb-18 14:00N 47°01' W 002°24'25 0.5
2018-Feb-16 12:22N 46°56' W 002°60'1 0.1
2018-Feb-16 05:01N 46°56' W 003°00'26 0.7
2018-Feb-14 16:21N 47°01' W 002°23'410.2
2018-Feb-14 16:00N 47°02' W 002°18'1 1.2
2018-Feb-14 15:30N 47°02' W 002°18'1 2.4
2018-Feb-14 14:58N 47°01' W 002°20'3 0.1
2018-Feb-13 11:58N 47°01' W 002°25'3 7.2
2018-Feb-13 11:30N 47°02' W 002°20'1 2.4
2018-Feb-13 11:00N 47°02' W 002°18'0 0.1
2018-Feb-13 10:29N 47°01' W 002°18'0 0.0
2018-Feb-13 10:00N 47°01' W 002°18'0 0.0
2018-Feb-13 09:30N 47°01' W 002°18'0 0.0
2018-Feb-13 09:00N 47°01' W 002°18'0 0.0
2018-Feb-13 08:29N 47°01' W 002°18'0 0.0
2018-Feb-13 07:58N 47°01' W 002°18'0 0.0
2018-Feb-13 07:30N 47°01' W 002°18'0 0.0
2018-Feb-13 07:00N 47°01' W 002°18'0 0.0
2018-Feb-13 06:30N 47°01' W 002°18'0 0.0
2018-Feb-13 05:57N 47°01' W 002°18'0 0.0
2018-Feb-13 05:28N 47°01' W 002°18'0 0.0
2018-Feb-13 05:00N 47°01' W 002°18'0 0.0
2018-Feb-13 04:30N 47°01' W 002°18'0 0.0
2018-Feb-13 04:00N 47°01' W 002°18'0 0.0
2018-Feb-13 03:30N 47°01' W 002°18'0 0.0
2018-Feb-13 03:00N 47°01' W 002°18'0 0.0
2018-Feb-13 02:30N 47°01' W 002°18'0 0.0
2018-Feb-13 02:00N 47°01' W 002°18'0 0.0
2018-Feb-13 01:30N 47°01' W 002°18'0 0.0
2018-Feb-13 01:00N 47°01' W 002°18'0 0.0
2018-Feb-13 00:30N 47°01' W 002°18'0 0.0
2018-Feb-13 00:00N 47°01' W 002°18'0 0.0
2018-Feb-12 23:30N 47°01' W 002°18'0 0.0
2018-Feb-12 23:00N 47°01' W 002°18'0 0.0
2018-Feb-12 22:29N 47°01' W 002°18'0 0.0
2018-Feb-12 22:00N 47°01' W 002°18'0 0.0
2018-Feb-12 21:30N 47°01' W 002°18'0 0.0
2018-Feb-12 21:00N 47°01' W 002°18'0 0.0
2018-Feb-12 20:29N 47°01' W 002°18'0 0.0
2018-Feb-12 19:59N 47°01' W 002°18'0 0.0
2018-Feb-12 19:30N 47°01' W 002°18'0 0.0
2018-Feb-12 18:58N 47°01' W 002°18'0 0.0
2018-Feb-12 18:30N 47°01' W 002°18'0 0.0
2018-Feb-12 17:59N 47°01' W 002°18'0 0.0
2018-Feb-12 17:30N 47°01' W 002°18'0 0.0
2018-Feb-12 16:58N 47°01' W 002°18'0 0.0
2018-Feb-12 16:30N 47°01' W 002°18'0 0.0
2018-Feb-12 16:00N 47°01' W 002°18'0 0.0
2018-Feb-12 15:30N 47°01' W 002°18'0 0.0
2018-Feb-12 14:59N 47°01' W 002°18'0 0.0
2018-Feb-12 14:30N 47°01' W 002°18'0 0.0
2018-Feb-12 14:00N 47°01' W 002°18'0 0.0
2018-Feb-12 13:27N 47°01' W 002°18'0 0.0
2018-Feb-12 12:57N 47°01' W 002°18'0 0.0
2018-Feb-12 12:26N 47°01' W 002°18'0 0.0
2018-Feb-12 12:00N 47°01' W 002°18'0 0.1
2018-Feb-12 11:30N 47°02' W 002°18'0 0.0
2018-Feb-12 11:00N 47°02' W 002°18'0 0.0
2018-Feb-12 10:27N 47°02' W 002°18'1 1.5
2018-Feb-12 10:00N 47°02' W 002°18'4 7.0
2018-Feb-12 09:30N 47°01' W 002°23'4 7.0
2018-Feb-12 09:00N 47°01' W 002°28'3 6.6
2018-Feb-12 08:29N 46°60' W 002°33'  

Dump ship's entire track history